Time;durP1;ratioP1;P1;durP2;ratioP2;P2;SDS_P1;SDS_P2;PMS_P1;PMS_P2;Temp;Humidity;BMP_temperature;BMP_pressure;BME280_temperature;BME280_humidity;BME280_pressure;Samples;Min_cycle;Max_cycle;Signal;HPM_P1;HPM_P2
2023/12/04 00:01:19;;;;;;;3.15;1.80;;;22.10;99.90;;;;;;4992899;28;20050;-47
2023/12/04 00:03:45;;;;;;;3.15;1.77;;;22.10;99.90;;;;;;4992919;28;20073;-48
2023/12/04 00:06:11;;;;;;;2.78;2.03;;;22.10;99.90;;;;;;4993088;28;20442;-48
2023/12/04 00:08:37;;;;;;;2.40;1.80;;;22.10;99.90;;;;;;4993118;28;20475;-48
2023/12/04 00:11:05;;;;;;;2.47;1.65;;;22.10;99.90;;;;;;5007717;28;20070;-48
2023/12/04 00:13:31;;;;;;;3.03;1.52;;;22.10;99.90;;;;;;4992893;28;20061;-49
2023/12/04 00:15:56;;;;;;;3.17;1.88;;;22.10;99.90;;;;;;4992696;28;20046;-47
2023/12/04 00:18:22;;;;;;;2.65;2.00;;;22.00;99.90;;;;;;4992708;28;20422;-47
2023/12/04 00:20:48;;;;;;;3.63;1.83;;;22.00;99.90;;;;;;4992624;28;20130;-47
2023/12/04 00:23:14;;;;;;;3.92;2.00;;;22.00;99.90;;;;;;4991444;28;20027;-48
2023/12/04 00:25:39;;;;;;;1.83;1.45;;;22.00;99.90;;;;;;4992877;28;20033;-48
2023/12/04 00:28:08;;;;;;;3.53;1.55;;;22.00;99.90;;;;;;4992564;28;20028;-48
2023/12/04 00:30:34;;;;;;;2.40;1.60;;;22.00;99.90;;;;;;4992598;28;20030;-48
2023/12/04 00:33:00;;;;;;;2.38;1.70;;;22.00;99.90;;;;;;4992509;28;20618;-48
2023/12/04 00:35:26;;;;;;;2.63;1.52;;;22.00;99.90;;;;;;4991881;28;20426;-48
2023/12/04 00:37:52;;;;;;;2.47;1.23;;;22.00;99.90;;;;;;4992536;28;20498;-48
2023/12/04 00:40:17;;;;;;;3.45;1.50;;;22.00;99.90;;;;;;4991204;28;20145;-48
2023/12/04 00:42:43;;;;;;;3.78;1.50;;;21.90;99.90;;;;;;4992543;28;20062;-48
2023/12/04 00:45:09;;;;;;;3.10;1.63;;;21.90;99.90;;;;;;4992696;28;20018;-47
2023/12/04 00:47:35;;;;;;;2.45;1.75;;;21.90;99.90;;;;;;4992608;28;20426;-48
2023/12/04 00:50:01;;;;;;;2.25;1.70;;;21.90;99.90;;;;;;4992247;28;20027;-47
2023/12/04 00:52:27;;;;;;;3.08;1.60;;;21.80;99.90;;;;;;4978715;28;20026;-48
2023/12/04 00:54:53;;;;;;;2.72;1.85;;;21.90;99.90;;;;;;4992349;28;20030;-48
2023/12/04 00:57:19;;;;;;;2.28;1.40;;;21.90;99.90;;;;;;4992270;28;20102;-49
2023/12/04 00:59:45;;;;;;;3.08;1.92;;;21.80;99.90;;;;;;4992503;28;20022;-48
2023/12/04 01:02:11;;;;;;;2.95;1.67;;;21.80;99.90;;;;;;4992797;28;20506;-48
2023/12/04 01:04:41;;;;;;;2.85;1.73;;;21.80;99.90;;;;;;4992353;28;20014;-48
2023/12/04 01:07:07;;;;;;;1.73;1.30;;;21.80;99.90;;;;;;4992107;28;20471;-48
2023/12/04 01:09:35;;;;;;;2.15;1.75;;;21.80;99.90;;;;;;4992126;28;20041;-48
2023/12/04 01:12:01;;;;;;;1.80;1.40;;;21.80;99.90;;;;;;4992224;28;20475;-48
2023/12/04 01:14:27;;;;;;;1.73;1.33;;;21.70;99.90;;;;;;4991971;28;20110;-48
2023/12/04 01:16:53;;;;;;;3.40;1.70;;;21.70;99.90;;;;;;4992289;28;20442;-48
2023/12/04 01:19:18;;;;;;;1.55;1.20;;;21.70;99.90;;;;;;4992073;28;20026;-48
2023/12/04 01:21:44;;;;;;;4.55;1.80;;;21.70;99.90;;;;;;4992375;28;20018;-49
2023/12/04 01:24:10;;;;;;;2.53;1.30;;;21.70;99.90;;;;;;4990894;28;20042;-49
2023/12/04 01:26:36;;;;;;;3.03;1.42;;;21.70;99.90;;;;;;4992207;28;20037;-48
2023/12/04 01:29:03;;;;;;;2.30;1.40;;;21.70;99.90;;;;;;4992135;28;20506;-48
2023/12/04 01:31:29;;;;;;;1.40;1.10;;;21.60;99.90;;;;;;4992082;28;20081;-47
2023/12/04 01:33:54;;;;;;;2.17;1.17;;;21.60;99.90;;;;;;4992173;28;20478;-48
2023/12/04 01:36:20;;;;;;;1.48;1.10;;;21.60;99.90;;;;;;4990653;28;20030;-47
2023/12/04 01:38:46;;;;;;;2.95;1.35;;;21.60;99.90;;;;;;4990846;28;20029;-47
2023/12/04 01:41:12;;;;;;;2.35;1.35;;;21.60;99.90;;;;;;4992302;28;20025;-47
2023/12/04 01:43:37;;;;;;;1.80;1.50;;;21.60;99.90;;;;;;4991898;28;20374;-47
2023/12/04 01:46:04;;;;;;;2.58;1.30;;;21.60;99.90;;;;;;4992925;28;20034;-47
2023/12/04 01:48:30;;;;;;;2.63;1.25;;;21.60;99.90;;;;;;4995180;28;20029;-47
2023/12/04 01:51:00;;;;;;;1.63;1.23;;;21.60;99.90;;;;;;4988037;28;20066;-48
2023/12/04 01:53:26;;;;;;;1.60;1.00;;;21.60;99.90;;;;;;4993050;28;20026;-47
2023/12/04 01:55:51;;;;;;;2.55;1.30;;;21.50;99.90;;;;;;4993342;28;20394;-48
2023/12/04 01:58:17;;;;;;;2.08;1.23;;;21.50;99.90;;;;;;4993132;28;20023;-48
2023/12/04 02:00:44;;;;;;;1.73;1.05;;;21.50;99.90;;;;;;4994916;28;20052;-48
2023/12/04 02:03:10;;;;;;;3.47;1.35;;;21.50;99.90;;;;;;4995023;28;20026;-47
2023/12/04 02:05:37;;;;;;;3.08;1.60;;;21.50;99.90;;;;;;4994902;28;20100;-47
2023/12/04 02:08:04;;;;;;;1.40;1.08;;;21.50;99.90;;;;;;4994113;28;20589;-47
2023/12/04 02:10:29;;;;;;;1.58;1.27;;;21.50;99.90;;;;;;4994498;28;20121;-47
2023/12/04 02:12:55;;;;;;;1.40;0.85;;;21.50;99.90;;;;;;4994683;28;20105;-47
2023/12/04 02:15:21;;;;;;;2.38;1.50;;;21.50;99.90;;;;;;4994789;28;20030;-47
2023/12/04 02:17:47;;;;;;;2.42;0.90;;;21.50;99.90;;;;;;4994635;28;20045;-47
2023/12/04 02:20:14;;;;;;;2.60;1.23;;;21.40;99.90;;;;;;4995152;28;20050;-47
2023/12/04 02:22:40;;;;;;;1.45;1.10;;;21.50;99.90;;;;;;4994558;28;20018;-47
2023/12/04 02:25:08;;;;;;;1.98;1.13;;;21.40;99.90;;;;;;4994576;28;20033;-47
2023/12/04 02:27:54;;;;;;;1.98;1.35;;;21.40;99.90;;;;;;4994552;28;20030;-46
2023/12/04 02:30:23;;;;;;;1.27;0.93;;;21.40;99.90;;;;;;4984241;28;20414;-47
2023/12/04 02:32:50;;;;;;;3.22;1.10;;;21.40;99.90;;;;;;4994434;28;20076;-47
2023/12/04 02:35:21;;;;;;;1.48;1.02;;;21.40;99.90;;;;;;4994359;28;20027;-47
2023/12/04 02:37:47;;;;;;;1.95;1.17;;;21.40;99.90;;;;;;4994362;28;20033;-45
2023/12/04 02:40:13;;;;;;;2.13;1.20;;;21.40;99.90;;;;;;4990737;28;20117;-47
2023/12/04 02:42:39;;;;;;;5.95;1.20;;;21.40;99.90;;;;;;4994326;28;20022;-47
2023/12/04 02:45:06;;;;;;;3.58;1.33;;;21.40;99.90;;;;;;4994033;28;20031;-47
2023/12/04 02:47:31;;;;;;;3.92;1.05;;;21.40;99.90;;;;;;4993326;28;20050;-46
2023/12/04 02:49:57;;;;;;;2.83;0.93;;;21.30;99.90;;;;;;4991786;28;20072;-46
2023/12/04 02:52:23;;;;;;;2.65;1.10;;;21.30;99.90;;;;;;4979970;28;20031;-45
2023/12/04 02:54:49;;;;;;;5.65;1.35;;;21.30;99.90;;;;;;4994187;28;20121;-46
2023/12/04 02:57:15;;;;;;;2.10;0.90;;;21.30;99.90;;;;;;4992564;28;20353;-45
2023/12/04 02:59:41;;;;;;;3.67;1.25;;;21.30;99.90;;;;;;4984772;28;20033;-45
2023/12/04 03:02:06;;;;;;;2.55;1.30;;;21.30;99.90;;;;;;4988551;28;20058;-46
2023/12/04 03:04:33;;;;;;;1.90;1.15;;;21.30;99.90;;;;;;4993724;28;20105;-46
2023/12/04 03:06:58;;;;;;;3.70;1.25;;;21.30;99.90;;;;;;4993819;28;20420;-47
2023/12/04 03:09:24;;;;;;;2.95;1.10;;;21.30;99.90;;;;;;4992995;28;20026;-47
2023/12/04 03:11:50;;;;;;;1.40;1.00;;;21.40;99.90;;;;;;4993695;28;20034;-46
2023/12/04 03:14:16;;;;;;;1.73;1.00;;;21.40;99.90;;;;;;4992803;28;20030;-47
2023/12/04 03:16:43;;;;;;;1.92;1.05;;;21.30;99.90;;;;;;4993667;28;20104;-46
2023/12/04 03:19:09;;;;;;;2.38;1.23;;;21.40;99.90;;;;;;4990001;28;20419;-46
2023/12/04 03:21:34;;;;;;;1.65;0.98;;;21.40;99.90;;;;;;4993081;28;20076;-46
2023/12/04 03:24:00;;;;;;;2.03;1.10;;;21.40;99.90;;;;;;4993193;28;20027;-46
2023/12/04 03:26:26;;;;;;;1.33;1.10;;;21.40;99.90;;;;;;4992643;28;20033;-46
2023/12/04 03:28:52;;;;;;;1.73;1.10;;;21.40;99.90;;;;;;4993063;28;20387;-46
2023/12/04 03:31:17;;;;;;;1.80;1.00;;;21.40;99.90;;;;;;4993161;28;20034;-46
2023/12/04 03:33:43;;;;;;;1.48;0.93;;;21.40;99.90;;;;;;4992486;28;20030;-47
2023/12/04 03:36:09;;;;;;;6.82;0.93;;;21.40;99.90;;;;;;4992964;28;20026;-47
2023/12/04 03:38:35;;;;;;;1.65;1.10;;;21.40;99.90;;;;;;4992733;28;20057;-47
2023/12/04 03:41:01;;;;;;;1.65;1.00;;;21.40;99.90;;;;;;4993124;28;20026;-47
2023/12/04 03:43:27;;;;;;;2.08;0.93;;;21.40;99.90;;;;;;4993155;28;20038;-47
2023/12/04 03:45:53;;;;;;;2.83;1.08;;;21.40;99.90;;;;;;4992057;28;20535;-47
2023/12/04 03:48:18;;;;;;;3.28;1.15;;;21.40;99.90;;;;;;4992976;28;20080;-47
2023/12/04 03:50:44;;;;;;;3.95;0.93;;;21.40;99.90;;;;;;4992164;28;20042;-46
2023/12/04 03:53:10;;;;;;;1.92;1.10;;;21.40;99.90;;;;;;4992846;28;20109;-47
2023/12/04 03:55:36;;;;;;;5.82;1.77;;;21.40;99.90;;;;;;4993039;28;20026;-47
2023/12/04 03:58:03;;;;;;;1.80;1.17;;;21.40;99.90;;;;;;4992030;28;20117;-47
2023/12/04 04:00:30;;;;;;;2.67;1.08;;;21.40;99.90;;;;;;4997961;23;20034;31
2023/12/04 04:02:56;;;;;;;2.40;0.80;;;21.40;99.90;;;;;;4925299;29;20130;-48
2023/12/04 04:05:22;;;;;;;2.42;1.00;;;21.40;99.90;;;;;;4926292;29;20079;-49
2023/12/04 04:07:48;;;;;;;2.08;0.90;;;21.40;99.90;;;;;;4933543;29;20496;-49
2023/12/04 04:10:13;;;;;;;1.48;0.90;;;21.40;99.90;;;;;;4948740;28;20471;-49
2023/12/04 04:12:39;;;;;;;2.50;0.95;;;21.40;99.90;;;;;;4934327;29;20030;-49
2023/12/04 04:15:06;;;;;;;1.60;0.80;;;21.40;99.90;;;;;;4935123;29;20019;-49
2023/12/04 04:17:33;;;;;;;1.33;1.10;;;21.40;99.90;;;;;;4934722;29;20472;-49
2023/12/04 04:19:59;;;;;;;4.67;0.83;;;21.40;99.90;;;;;;4934808;29;20028;-49
2023/12/04 04:22:25;;;;;;;3.53;0.88;;;21.40;99.90;;;;;;4934656;29;20274;-49
2023/12/04 04:24:51;;;;;;;4.13;1.30;;;21.40;99.90;;;;;;4934711;29;20083;-48
2023/12/04 04:27:16;;;;;;;2.53;1.05;;;21.30;99.90;;;;;;4934640;28;20035;-49
2023/12/04 04:29:42;;;;;;;2.75;1.20;;;21.40;99.90;;;;;;4934526;29;20046;-49
2023/12/04 04:32:08;;;;;;;2.80;1.20;;;21.30;99.90;;;;;;4934691;29;20036;-49
2023/12/04 04:34:34;;;;;;;3.15;1.02;;;21.30;99.90;;;;;;4934760;29;20038;-49
2023/12/04 04:36:59;;;;;;;2.80;1.25;;;21.30;99.90;;;;;;4934623;29;20028;-49
2023/12/04 04:39:25;;;;;;;2.90;1.10;;;21.30;99.90;;;;;;4934352;29;20027;-49
2023/12/04 04:41:51;;;;;;;2.38;1.48;;;21.30;99.90;;;;;;4934782;29;20028;-49
2023/12/04 04:44:17;;;;;;;6.28;1.02;;;21.30;99.90;;;;;;4934756;28;20054;-49
2023/12/04 04:46:43;;;;;;;4.57;1.50;;;21.30;99.90;;;;;;4934427;29;20113;-49
2023/12/04 04:49:08;;;;;;;9.10;1.00;;;21.30;99.90;;;;;;4934580;29;20110;-49
2023/12/04 04:51:34;;;;;;;5.00;1.10;;;21.30;99.90;;;;;;4931724;29;20054;-49
2023/12/04 04:54:01;;;;;;;3.78;1.00;;;21.30;99.90;;;;;;4936383;29;20058;-50
2023/12/04 04:56:27;;;;;;;1.77;0.90;;;21.30;99.90;;;;;;4942674;28;20034;-49
2023/12/04 04:58:53;;;;;;;2.85;1.35;;;21.30;99.90;;;;;;4932523;29;20098;-49
2023/12/04 05:01:19;;;;;;;2.35;1.20;;;21.30;99.90;;;;;;4938568;28;20388;-49
2023/12/04 05:03:44;;;;;;;2.10;1.20;;;21.30;99.90;;;;;;4934384;29;20108;-49
2023/12/04 05:06:10;;;;;;;2.97;1.00;;;21.30;99.90;;;;;;4934252;29;20039;-49
2023/12/04 05:08:36;;;;;;;3.72;0.95;;;21.30;99.90;;;;;;4934505;28;20500;-49
2023/12/04 05:11:02;;;;;;;6.95;1.25;;;21.20;99.90;;;;;;4933937;29;20217;-49
2023/12/04 05:13:28;;;;;;;2.38;1.10;;;21.20;99.90;;;;;;4934241;29;20032;-49
2023/12/04 05:15:54;;;;;;;7.07;1.20;;;21.20;99.90;;;;;;4934042;29;20031;-49
2023/12/04 05:18:19;;;;;;;2.95;1.27;;;21.20;99.90;;;;;;4934274;29;20044;-49
2023/12/04 05:20:45;;;;;;;2.28;1.20;;;21.20;99.90;;;;;;4934708;29;20468;-49
2023/12/04 05:23:11;;;;;;;2.25;0.95;;;21.20;99.90;;;;;;4937767;29;20075;-49
2023/12/04 05:25:37;;;;;;;4.38;1.27;;;21.20;99.90;;;;;;4937984;29;20499;-49
2023/12/04 05:28:04;;;;;;;1.65;1.00;;;21.20;99.90;;;;;;4937913;29;20028;-50
2023/12/04 05:30:30;;;;;;;2.43;1.17;;;21.20;99.90;;;;;;4937747;29;20036;-49
2023/12/04 05:32:55;;;;;;;2.90;1.05;;;21.20;99.90;;;;;;4952203;28;20266;-49
2023/12/04 05:35:21;;;;;;;2.67;0.88;;;21.20;99.90;;;;;;4937621;29;20388;-49
2023/12/04 05:37:47;;;;;;;2.35;1.00;;;21.20;99.90;;;;;;4937347;28;20032;-49
2023/12/04 05:40:14;;;;;;;1.92;1.17;;;21.20;99.90;;;;;;4937515;29;20023;-49
2023/12/04 05:42:40;;;;;;;2.45;0.80;;;21.20;99.90;;;;;;4937723;28;20028;-49
2023/12/04 05:45:07;;;;;;;3.55;1.08;;;21.20;99.90;;;;;;4937407;29;20488;-50
2023/12/04 05:47:33;;;;;;;2.47;1.10;;;21.10;99.90;;;;;;4937615;29;20016;-50
2023/12/04 05:50:00;;;;;;;2.50;1.05;;;21.10;99.90;;;;;;4937023;29;20385;-50
2023/12/04 05:52:26;;;;;;;2.17;1.00;;;21.10;99.90;;;;;;4937161;29;20034;-49
2023/12/04 05:54:52;;;;;;;1.73;1.00;;;21.10;99.90;;;;;;4937315;29;20024;-49
2023/12/04 05:57:18;;;;;;;2.17;1.35;;;21.10;99.90;;;;;;4937148;29;20469;-49
2023/12/04 05:59:43;;;;;;;2.72;0.88;;;21.10;99.90;;;;;;4937295;29;20111;-50
2023/12/04 06:02:09;;;;;;;2.22;0.80;;;21.10;99.90;;;;;;4936894;29;20047;-50
2023/12/04 06:04:35;;;;;;;1.25;0.88;;;21.10;99.90;;;;;;4937488;29;20477;-50
2023/12/04 06:07:01;;;;;;;3.53;1.00;;;21.10;99.90;;;;;;4937169;29;20083;-50
2023/12/04 06:09:27;;;;;;;1.73;0.95;;;21.00;99.90;;;;;;4936681;29;20036;-50
2023/12/04 06:11:52;;;;;;;1.00;0.63;;;21.10;99.90;;;;;;4937081;29;20024;-50
2023/12/04 06:14:18;;;;;;;1.45;1.20;;;21.00;99.90;;;;;;4936823;29;20024;-50
2023/12/04 06:16:44;;;;;;;2.75;0.70;;;21.00;99.90;;;;;;4936845;28;20086;-50
2023/12/04 06:19:10;;;;;;;2.67;0.75;;;21.00;99.90;;;;;;4936825;29;20035;-50
2023/12/04 06:21:36;;;;;;;3.35;1.10;;;21.00;99.90;;;;;;4937161;29;20016;-49
2023/12/04 06:24:02;;;;;;;1.40;0.90;;;21.00;99.90;;;;;;4936813;29;20023;-51
2023/12/04 06:26:29;;;;;;;2.13;1.23;;;21.00;99.90;;;;;;4936652;29;20458;-50
2023/12/04 06:28:55;;;;;;;3.92;1.00;;;21.00;99.90;;;;;;4936741;29;20028;-50
2023/12/04 06:31:21;;;;;;;3.85;0.80;;;21.00;99.90;;;;;;4936477;29;20159;-50
2023/12/04 06:33:47;;;;;;;1.73;1.20;;;21.00;99.90;;;;;;4935585;29;20028;-50
2023/12/04 06:36:14;;;;;;;1.95;1.00;;;21.00;99.90;;;;;;4936478;29;20032;-50
2023/12/04 06:38:41;;;;;;;5.40;1.45;;;20.90;99.90;;;;;;4936468;29;20531;-51
2023/12/04 06:41:08;;;;;;;2.10;1.40;;;20.90;99.90;;;;;;4936563;29;20031;-50
2023/12/04 06:43:34;;;;;;;2.05;1.00;;;20.90;99.90;;;;;;4935321;29;20388;-50
2023/12/04 06:46:00;;;;;;;1.77;1.33;;;20.90;99.90;;;;;;4936394;29;20500;-50
2023/12/04 06:48:26;;;;;;;2.55;0.82;;;20.90;99.90;;;;;;4936133;29;20047;-50
2023/12/04 06:50:52;;;;;;;2.53;1.73;;;21.00;99.90;;;;;;4936047;29;20035;-49
2023/12/04 06:53:17;;;;;;;1.77;1.10;;;20.90;99.90;;;;;;4936252;29;20046;-49
2023/12/04 06:55:44;;;;;;;2.22;1.10;;;20.90;99.90;;;;;;4950701;29;20381;-50
2023/12/04 06:58:10;;;;;;;3.10;1.42;;;20.90;99.90;;;;;;4936189;29;20507;-50
2023/12/04 07:00:35;;;;;;;1.92;1.23;;;20.90;99.90;;;;;;4936117;28;20059;-50
2023/12/04 07:03:01;;;;;;;2.60;1.15;;;20.90;99.90;;;;;;4950972;29;20067;-50
2023/12/04 07:05:27;;;;;;;1.48;1.17;;;20.90;99.90;;;;;;4935807;28;20459;-50
2023/12/04 07:07:53;;;;;;;4.53;1.52;;;20.90;99.90;;;;;;4950683;29;20032;-49
2023/12/04 07:10:19;;;;;;;2.03;1.60;;;20.90;99.90;;;;;;4935798;29;20039;-49
2023/12/04 07:12:45;;;;;;;3.78;1.40;;;20.90;99.90;;;;;;4935789;29;20428;-50
2023/12/04 07:15:11;;;;;;;2.30;1.40;;;20.90;99.90;;;;;;4935805;29;20059;-50
2023/12/04 07:17:37;;;;;;;3.85;1.65;;;20.90;99.90;;;;;;4935871;29;20119;-50
2023/12/04 07:20:07;;;;;;;6.63;1.48;;;20.90;99.90;;;;;;4936163;29;20095;-50
2023/12/04 07:22:33;;;;;;;3.95;1.65;;;20.90;99.90;;;;;;4935799;29;20111;-50
2023/12/04 07:24:59;;;;;;;3.08;1.30;;;20.80;99.90;;;;;;4935691;29;20028;-50
2023/12/04 07:27:25;;;;;;;4.10;1.55;;;20.80;99.90;;;;;;4950375;29;20377;-50
2023/12/04 07:29:51;;;;;;;2.30;1.52;;;20.90;99.90;;;;;;4935257;29;20060;-50
2023/12/04 07:32:20;;;;;;;2.95;1.58;;;20.80;99.90;;;;;;4935378;29;20070;-50
2023/12/04 07:34:46;;;;;;;3.67;1.30;;;20.80;99.90;;;;;;4935100;29;20421;-49
2023/12/04 07:37:12;;;;;;;3.20;1.85;;;20.80;99.90;;;;;;4935182;29;20046;-49
2023/12/04 07:39:37;;;;;;;5.10;1.50;;;20.80;99.90;;;;;;4935442;29;20102;-50
2023/12/04 07:42:03;;;;;;;3.78;1.83;;;20.80;99.90;;;;;;4935597;29;20028;-49
2023/12/04 07:44:30;;;;;;;3.08;1.70;;;20.80;99.90;;;;;;4949827;28;20480;-50
2023/12/04 07:46:55;;;;;;;5.63;1.50;;;20.80;99.90;;;;;;4950064;28;20031;-49
2023/12/04 07:49:21;;;;;;;3.38;1.70;;;20.80;99.90;;;;;;4934880;29;20028;-50
2023/12/04 07:51:47;;;;;;;2.42;1.45;;;20.80;99.90;;;;;;4934944;29;20039;-50
2023/12/04 07:54:13;;;;;;;3.30;2.33;;;20.80;99.90;;;;;;4935114;29;20091;-50
2023/12/04 07:56:39;;;;;;;2.40;1.80;;;20.80;99.90;;;;;;4935169;29;20039;-49
2023/12/04 07:59:04;;;;;;;4.68;2.28;;;20.80;99.90;;;;;;4935110;29;20421;-49
2023/12/04 08:01:30;;;;;;;4.70;1.58;;;20.80;99.90;;;;;;4949493;28;20052;-49
2023/12/04 08:03:56;;;;;;;6.43;3.10;;;20.80;99.90;;;;;;4934927;29;20031;-50
2023/12/04 08:06:22;;;;;;;5.55;1.88;;;20.80;99.90;;;;;;4935185;29;20059;-49
2023/12/04 08:08:47;;;;;;;2.47;1.90;;;20.80;99.90;;;;;;4934699;29;20024;-49
2023/12/04 08:11:13;;;;;;;4.97;1.85;;;20.80;99.90;;;;;;4934714;29;20035;-49
2023/12/04 08:13:39;;;;;;;3.10;2.00;;;20.80;99.90;;;;;;4934728;29;20023;-50
2023/12/04 08:16:14;;;;;;;2.47;1.60;;;20.80;99.90;;;;;;4934902;29;20023;-50
2023/12/04 08:18:41;;;;;;;3.55;2.28;;;20.80;99.90;;;;;;4934709;29;20110;-49
2023/12/04 08:21:07;;;;;;;5.13;2.00;;;20.80;99.90;;;;;;4934838;29;20488;-50
2023/12/04 08:23:32;;;;;;;6.05;2.05;;;20.80;99.90;;;;;;4934852;29;20035;-50
2023/12/04 08:25:59;;;;;;;2.78;1.67;;;20.80;99.90;;;;;;4934484;29;20032;-49
2023/12/04 08:28:24;;;;;;;2.97;1.90;;;20.80;99.90;;;;;;4934676;29;20108;-49
2023/12/04 08:30:50;;;;;;;5.45;2.30;;;20.80;99.90;;;;;;4934660;29;20205;-49
2023/12/04 08:33:16;;;;;;;4.18;1.98;;;20.80;99.90;;;;;;4934438;29;20020;-50
2023/12/04 08:35:42;;;;;;;3.20;1.90;;;20.80;99.90;;;;;;4934609;29;20028;-50
2023/12/04 08:38:07;;;;;;;4.75;2.30;;;20.70;99.90;;;;;;4934438;29;20107;-49
2023/12/04 08:40:33;;;;;;;7.90;2.00;;;20.80;99.90;;;;;;4934836;29;20035;-50
2023/12/04 08:42:59;;;;;;;3.30;2.13;;;20.80;99.90;;;;;;4949130;28;20545;-50
2023/12/04 08:45:25;;;;;;;4.00;2.22;;;20.80;99.90;;;;;;4934534;29;20035;-49
2023/12/04 08:47:50;;;;;;;3.80;2.10;;;20.70;99.90;;;;;;4934308;28;20118;-50
2023/12/04 08:50:16;;;;;;;3.72;2.17;;;20.80;99.90;;;;;;4934050;29;20036;-50
2023/12/04 08:52:42;;;;;;;6.68;2.45;;;20.70;99.90;;;;;;4949100;29;20031;-50
2023/12/04 08:55:08;;;;;;;5.30;1.80;;;20.70;99.90;;;;;;4934470;29;20024;-50
2023/12/04 08:57:34;;;;;;;5.82;2.20;;;20.80;99.90;;;;;;4937969;29;20030;-50
2023/12/04 09:00:00;;;;;;;5.80;2.00;;;20.80;99.90;;;;;;4938340;29;20031;-50
2023/12/04 09:02:26;;;;;;;4.22;2.42;;;20.80;99.90;;;;;;4937918;29;20069;-50
2023/12/04 09:04:51;;;;;;;4.30;2.00;;;20.80;99.90;;;;;;4938333;29;20024;-50
2023/12/04 09:07:17;;;;;;;4.80;1.75;;;20.80;99.90;;;;;;4938121;29;20027;-50
2023/12/04 09:09:43;;;;;;;4.30;1.98;;;20.80;99.90;;;;;;4952890;28;20044;-50
2023/12/04 09:12:10;;;;;;;4.20;2.30;;;20.80;99.90;;;;;;4938228;29;20068;-50
2023/12/04 09:14:36;;;;;;;3.77;1.67;;;20.80;99.90;;;;;;4938186;29;20027;-50
2023/12/04 09:17:03;;;;;;;3.97;1.80;;;20.80;99.90;;;;;;4938153;29;20381;-50
2023/12/04 09:19:29;;;;;;;3.58;2.33;;;20.80;99.90;;;;;;4937783;29;20485;-50
2023/12/04 09:21:56;;;;;;;5.35;2.08;;;20.80;99.90;;;;;;4937902;29;20082;-50
2023/12/04 09:24:23;;;;;;;4.97;2.00;;;20.80;99.90;;;;;;4937645;29;20020;-50
2023/12/04 09:26:49;;;;;;;3.83;2.35;;;20.80;99.90;;;;;;4937853;28;20042;-50
2023/12/04 09:29:16;;;;;;;5.60;2.00;;;20.90;99.90;;;;;;4937530;29;20020;-49
2023/12/04 09:31:42;;;;;;;5.93;1.80;;;20.80;99.90;;;;;;4936332;29;20039;-49
2023/12/04 09:34:08;;;;;;;5.53;1.92;;;20.90;99.90;;;;;;4937896;29;20503;-49
2023/12/04 09:36:34;;;;;;;3.85;1.92;;;20.80;99.90;;;;;;4937858;28;20027;-50
2023/12/04 09:39:00;;;;;;;6.20;1.88;;;20.80;99.90;;;;;;4937851;29;20433;-50
2023/12/04 09:41:26;;;;;;;5.35;2.28;;;20.80;99.90;;;;;;4937443;28;20103;-49
2023/12/04 09:43:52;;;;;;;3.05;1.95;;;20.90;99.90;;;;;;4937559;29;20039;-49
2023/12/04 09:46:19;;;;;;;3.75;1.60;;;20.90;99.90;;;;;;4937280;29;20645;-50
2023/12/04 09:48:45;;;;;;;3.75;2.17;;;20.80;99.90;;;;;;4937554;29;20027;-49
2023/12/04 09:51:11;;;;;;;4.40;2.03;;;20.90;99.90;;;;;;4937204;29;20055;-50
2023/12/04 09:53:37;;;;;;;3.05;1.83;;;20.80;99.90;;;;;;4937459;29;20453;-50
2023/12/04 09:56:04;;;;;;;3.53;1.88;;;20.90;99.90;;;;;;4937710;29;20023;-50
2023/12/04 09:58:32;;;;;;;3.22;1.65;;;20.90;99.90;;;;;;4937202;29;20059;-49
2023/12/04 10:01:00;;;;;;;8.80;2.00;;;20.90;99.90;;;;;;4936880;29;20515;-50
2023/12/04 10:03:27;;;;;;;3.47;1.70;;;20.90;99.90;;;;;;4937118;29;20031;-50
2023/12/04 10:05:54;;;;;;;5.70;1.70;;;20.90;99.90;;;;;;4937032;29;20024;-50
2023/12/04 10:08:21;;;;;;;4.20;1.63;;;20.90;99.90;;;;;;4937170;29;20031;-50
2023/12/04 10:10:47;;;;;;;5.05;1.70;;;20.90;99.90;;;;;;4937065;29;20036;-50
2023/12/04 10:13:13;;;;;;;3.40;1.60;;;20.90;99.90;;;;;;4936987;29;20374;-50
2023/12/04 10:15:49;;;;;;;2.85;1.70;;;20.90;99.90;;;;;;4936761;29;20036;-50
2023/12/04 10:18:30;;;;;;;5.55;1.90;;;20.90;99.90;;;;;;4936920;29;20481;-50
2023/12/04 10:20:57;;;;;;;3.67;1.80;;;20.90;99.90;;;;;;4936636;29;20032;-51
2023/12/04 10:23:41;;;;;;;4.38;2.38;;;20.90;99.90;;;;;;4936794;29;20090;-50
2023/12/04 10:26:07;;;;;;;2.95;1.70;;;20.90;99.90;;;;;;4936798;29;20039;-50
2023/12/04 10:28:34;;;;;;;3.60;1.95;;;20.90;99.90;;;;;;4936881;29;20512;-50
2023/12/04 10:31:00;;;;;;;2.53;1.73;;;20.90;99.90;;;;;;4951218;28;20401;-50
2023/12/04 10:33:28;;;;;;;4.28;1.80;;;20.90;99.90;;;;;;4936711;29;20492;-50
2023/12/04 10:35:57;;;;;;;4.63;1.60;;;20.90;99.90;;;;;;4936581;29;20027;-50
2023/12/04 10:38:23;;;;;;;3.58;2.13;;;20.90;99.90;;;;;;4936368;29;20102;-50
2023/12/04 10:40:49;;;;;;;3.28;1.95;;;20.90;99.90;;;;;;4936444;29;20156;-50
2023/12/04 10:43:17;;;;;;;3.05;2.00;;;20.90;99.90;;;;;;4936474;29;20485;-50
2023/12/04 10:45:45;;;;;;;3.78;2.40;;;20.90;99.90;;;;;;4936343;29;20031;-50
2023/12/04 10:48:12;;;;;;;3.97;2.03;;;20.90;99.90;;;;;;4936225;29;20086;-50
2023/12/04 10:50:39;;;;;;;6.35;4.57;;;20.90;99.90;;;;;;4936194;29;20035;-51
2023/12/04 10:53:09;;;;;;;4.95;2.50;;;20.90;99.90;;;;;;4936510;29;20167;-50
2023/12/04 10:55:36;;;;;;;5.38;2.63;;;20.90;99.90;;;;;;4936271;29;20023;-50
2023/12/04 10:58:06;;;;;;;4.00;2.28;;;20.90;99.90;;;;;;4936174;29;20039;-51
2023/12/04 11:00:34;;;;;;;6.32;2.80;;;20.90;99.90;;;;;;4935659;29;20024;-50
2023/12/04 11:03:08;;;;;;;7.38;2.58;;;20.90;99.90;;;;;;4936185;29;20028;-50
2023/12/04 11:05:38;;;;;;;5.68;2.17;;;20.90;99.90;;;;;;4936113;29;20034;-50
2023/12/04 11:08:14;;;;;;;4.07;2.30;;;20.90;99.90;;;;;;4951308;28;20380;-50
2023/12/04 11:10:50;;;;;;;4.07;2.20;;;21.00;99.90;;;;;;4935639;29;20396;-50
2023/12/04 11:13:21;;;;;;;3.42;2.50;;;21.00;99.90;;;;;;4935800;29;20034;-50
2023/12/04 11:15:50;;;;;;;4.15;2.28;;;21.00;99.90;;;;;;4935703;29;20047;-50
2023/12/04 11:18:21;;;;;;;5.28;2.38;;;20.90;99.90;;;;;;4935533;29;20027;-50
2023/12/04 11:20:59;;;;;;;6.78;2.38;;;20.90;99.90;;;;;;4935647;29;20023;-50
2023/12/04 11:23:26;;;;;;;3.95;2.60;;;21.00;99.90;;;;;;4935675;29;20047;-50
2023/12/04 11:25:53;;;;;;;4.95;2.60;;;21.00;99.90;;;;;;4935447;29;20020;-50
2023/12/04 11:28:19;;;;;;;5.35;3.35;;;21.00;99.90;;;;;;4935581;29;20183;-50
2023/12/04 11:30:47;;;;;;;5.68;2.78;;;21.00;99.90;;;;;;4935425;29;20071;-51
2023/12/04 11:33:12;;;;;;;5.18;2.88;;;21.00;99.90;;;;;;4935405;29;20421;-50
2023/12/04 11:35:39;;;;;;;4.70;3.03;;;21.00;99.90;;;;;;4935535;29;20036;-50
2023/12/04 11:38:09;;;;;;;6.30;3.08;;;21.00;99.90;;;;;;4935592;29;20019;-50
2023/12/04 11:40:36;;;;;;;5.07;2.25;;;21.00;99.90;;;;;;4935358;29;20381;-50
2023/12/04 11:43:26;;;;;;;4.13;2.33;;;21.00;99.90;;;;;;4935133;29;20024;-50
2023/12/04 11:45:52;;;;;;;6.95;3.40;;;21.00;99.90;;;;;;4934914;29;20042;-50
2023/12/04 11:48:23;;;;;;;3.42;2.55;;;21.00;99.90;;;;;;4935052;29;20492;-50
2023/12/04 11:50:50;;;;;;;5.53;2.90;;;21.00;99.90;;;;;;4935040;29;20063;-50
2023/12/04 11:53:16;;;;;;;7.03;3.67;;;21.00;99.90;;;;;;4935113;28;20560;-50
2023/12/04 11:55:42;;;;;;;6.40;3.22;;;21.00;99.90;;;;;;4934910;29;20107;-51
2023/12/04 11:58:12;;;;;;;8.50;3.78;;;21.10;99.90;;;;;;4935060;28;20032;-50
2023/12/04 12:00:38;;;;;;;6.45;3.75;;;21.10;99.90;;;;;;4934765;29;20035;-50
2023/12/04 12:03:09;;;;;;;7.18;4.03;;;21.10;99.90;;;;;;4935264;29;20039;-50
2023/12/04 12:05:38;;;;;;;5.78;3.40;;;21.00;99.90;;;;;;4934957;29;20024;-50
2023/12/04 12:08:05;;;;;;;6.35;3.13;;;21.10;99.90;;;;;;4935413;29;20027;-50
2023/12/04 12:10:32;;;;;;;6.87;3.37;;;21.10;99.90;;;;;;4934689;29;20043;-50
2023/12/04 12:12:58;;;;;;;8.85;3.63;;;21.10;99.90;;;;;;4934978;29;20074;-50
2023/12/04 12:15:24;;;;;;;8.77;3.00;;;21.10;99.90;;;;;;4934891;29;20024;-50
2023/12/04 12:17:51;;;;;;;5.90;3.47;;;21.10;99.90;;;;;;4934683;29;20023;-49
2023/12/04 12:20:17;;;;;;;6.32;3.40;;;21.10;99.90;;;;;;4934878;29;20374;-50
2023/12/04 12:22:43;;;;;;;7.50;3.45;;;21.10;99.90;;;;;;4934522;29;20020;-50
2023/12/04 12:25:10;;;;;;;5.90;3.90;;;21.10;99.90;;;;;;4934707;29;20091;-51
2023/12/04 12:27:37;;;;;;;8.30;3.83;;;21.10;99.90;;;;;;4934823;29;20055;-50
2023/12/04 12:30:04;;;;;;;7.25;3.63;;;21.10;99.90;;;;;;4934390;29;20036;-50
2023/12/04 12:32:36;;;;;;;7.00;3.47;;;21.10;99.90;;;;;;4934375;29;20028;-51
2023/12/04 12:35:03;;;;;;;7.45;3.70;;;21.10;99.90;;;;;;4932924;29;20429;-50
2023/12/04 12:37:29;;;;;;;7.37;4.83;;;21.10;99.90;;;;;;4932589;29;20034;-54
2023/12/04 12:39:56;;;;;;;8.18;3.97;;;21.10;99.90;;;;;;4946193;29;20023;-51
2023/12/04 12:42:26;;;;;;;16.48;4.55;;;21.10;99.90;;;;;;4932470;29;20046;-57
2023/12/04 12:44:52;;;;;;;12.63;5.45;;;21.10;99.90;;;;;;4933788;29;20115;-51